Time;durP1;ratioP1;P1;durP2;ratioP2;P2;SDS_P1;SDS_P2;PMS_P1;PMS_P2;Temp;Humidity;BMP_temperature;BMP_pressure;BME280_temperature;BME280_humidity;BME280_pressure;Samples;Min_cycle;Max_cycle;Signal;HPM_P1;HPM_P2
2022/07/22 00:01:30;;;;;;;9.93;4.95;;;;;;;20.16;80.03;97337.81;5069480;28;20028;-76
2022/07/22 00:03:57;;;;;;;9.75;5.00;;;;;;;20.10;80.47;97323.00;5052918;28;20012;-75
2022/07/22 00:06:22;;;;;;;13.98;5.10;;;;;;;19.88;81.80;97324.38;5051495;28;20020;-74
2022/07/22 00:08:48;;;;;;;9.15;5.72;;;;;;;19.82;82.35;97314.16;5064174;28;20484;-75
2022/07/22 00:11:14;;;;;;;8.15;5.22;;;;;;;19.80;83.89;97316.19;5047015;28;20020;-75
2022/07/22 00:13:39;;;;;;;6.40;4.93;;;;;;;19.88;84.11;97324.38;5044503;28;20024;-75
2022/07/22 00:16:06;;;;;;;7.40;5.22;;;;;;;19.75;85.35;97318.50;5069518;28;20187;-75
2022/07/22 00:18:32;;;;;;;10.90;5.43;;;;;;;19.75;86.98;97329.38;5044377;28;20028;-75
2022/07/22 00:20:58;;;;;;;7.60;5.40;;;;;;;19.61;87.08;97305.50;5069570;28;20028;-76
2022/07/22 00:23:23;;;;;;;9.30;5.20;;;;;;;19.68;86.39;97311.16;5051338;28;20028;-76
2022/07/22 00:25:49;;;;;;;9.70;5.35;;;;;;;19.74;87.39;97338.53;5043152;28;20147;-76
2022/07/22 00:28:14;;;;;;;7.78;5.10;;;;;;;19.62;89.37;97320.78;5049344;28;20033;-76
2022/07/22 00:30:40;;;;;;;7.38;5.13;;;;;;;19.50;89.52;97313.91;5047805;28;20040;-77
2022/07/22 00:33:05;;;;;;;11.57;6.30;;;;;;;19.54;89.84;97331.56;5052493;28;20058;-76
2022/07/22 00:35:31;;;;;;;11.02;6.50;;;;;;;19.46;90.13;97323.34;5052594;28;20032;-76
2022/07/22 00:37:57;;;;;;;9.15;6.18;;;;;;;19.49;90.30;97325.75;5069082;28;20496;-76
2022/07/22 00:40:22;;;;;;;18.83;6.53;;;;;;;19.52;89.87;97333.59;5052517;28;20067;-76
2022/07/22 00:42:49;;;;;;;11.90;6.32;;;;;;;19.47;90.04;97330.50;5044055;28;20032;-76
2022/07/22 00:45:14;;;;;;;11.25;6.30;;;;;;;19.33;90.87;97312.00;5055743;28;20431;-76
2022/07/22 00:47:40;;;;;;;12.88;6.63;;;;;;;19.50;90.71;97330.19;5056065;28;20054;-76
2022/07/22 00:50:06;;;;;;;13.07;7.00;;;;;;;19.49;90.72;97325.75;5073064;28;20090;-77
2022/07/22 00:52:33;;;;;;;11.65;6.30;;;;;;;19.51;91.09;97325.59;5064614;28;20029;-75
2022/07/22 00:55:00;;;;;;;12.43;6.72;;;;;;;19.45;90.91;97327.06;5039647;28;20032;-75
2022/07/22 00:57:25;;;;;;;13.75;6.53;;;;;;;19.44;91.09;97317.25;5056122;28;20032;-74
2022/07/22 00:59:51;;;;;;;10.30;6.65;;;;;;;19.40;91.69;97313.97;5054097;28;20056;-75
2022/07/22 01:02:17;;;;;;;10.63;7.15;;;;;;;19.52;91.69;97325.44;5072905;28;20097;-74
2022/07/22 01:04:42;;;;;;;13.23;6.20;;;;;;;19.42;91.39;97321.94;5053010;28;20051;-75
2022/07/22 01:07:08;;;;;;;9.80;5.97;;;;;;;19.40;91.77;97327.53;5056011;28;20032;-76
2022/07/22 01:09:34;;;;;;;13.45;5.68;;;;;;;19.33;92.05;97329.13;5065413;28;20025;-75
2022/07/22 01:12:00;;;;;;;9.85;6.15;;;;;;;19.26;92.48;97316.31;5071512;28;20033;-74
2022/07/22 01:14:26;;;;;;;9.63;6.25;;;;;;;19.29;92.86;97322.28;5052358;28;20032;-75
2022/07/22 01:16:51;;;;;;;8.63;5.70;;;;;;;19.31;92.27;97333.00;5067973;28;20025;-75
2022/07/22 01:19:17;;;;;;;9.52;6.13;;;;;;;19.20;92.67;97325.06;5052414;28;20155;-75
2022/07/22 01:21:43;;;;;;;9.93;6.55;;;;;;;19.21;94.09;97338.50;5065689;28;20404;-76
2022/07/22 01:24:08;;;;;;;13.95;6.18;;;;;;;19.17;95.21;97338.94;5055553;28;20020;-76
2022/07/22 01:26:34;;;;;;;11.63;6.20;;;;;;;19.11;95.25;97332.28;5055586;28;20021;-76
2022/07/22 01:29:00;;;;;;;10.48;6.13;;;;;;;19.03;93.33;97326.78;5055441;28;20064;-76
2022/07/22 01:34:10;;;;;;;11.65;6.75;;;;;;;18.75;93.86;97306.97;5072074;28;20031;-76
2022/07/22 01:36:35;;;;;;;18.48;6.78;;;;;;;18.77;95.21;97326.63;5051916;28;20025;-76
2022/07/22 01:39:01;;;;;;;9.52;6.50;;;;;;;18.74;96.49;97321.53;5070255;28;20035;-75
2022/07/22 01:41:27;;;;;;;11.88;6.50;;;;;;;18.83;97.24;97336.03;5055349;28;20052;-76
2022/07/22 01:43:52;;;;;;;13.68;6.47;;;;;;;18.75;97.21;97334.09;5055216;28;20017;-76
2022/07/22 01:46:18;;;;;;;11.10;6.72;;;;;;;18.70;98.18;97343.66;5055458;28;20481;-76
2022/07/22 01:48:44;;;;;;;17.67;7.00;;;;;;;18.63;98.17;97329.00;5055221;28;20518;-76
2022/07/22 01:51:10;;;;;;;12.45;6.57;;;;;;;18.57;99.58;97325.03;5054922;28;20039;-76
2022/07/22 01:53:35;;;;;;;12.85;7.18;;;;;;;18.59;98.63;97338.44;5058521;28;20025;-75
2022/07/22 01:56:01;;;;;;;10.07;6.80;;;;;;;18.41;99.18;97295.84;5066696;28;20395;-75
2022/07/22 01:58:26;;;;;;;18.98;6.93;;;;;;;18.55;100.00;97337.03;5054982;28;20472;-76
2022/07/22 02:00:52;;;;;;;16.27;6.03;;;;;;;18.48;100.00;97333.19;5054775;28;20143;-76
2022/07/22 02:03:18;;;;;;;14.90;6.18;;;;;;;18.30;100.00;97319.56;5053400;28;20034;-76
2022/07/22 02:05:45;;;;;;;14.73;6.15;;;;;;;18.51;100.00;97341.91;5046452;28;20033;-76
2022/07/22 02:08:11;;;;;;;14.07;6.30;;;;;;;18.49;100.00;97327.63;5053679;28;20132;-76
2022/07/22 02:10:37;;;;;;;15.25;6.70;;;;;;;18.53;100.00;97341.75;5051650;28;20025;-76
2022/07/22 02:13:04;;;;;;;14.00;6.32;;;;;;;18.43;99.93;97344.44;5052369;28;20025;-75
2022/07/22 02:15:29;;;;;;;9.35;5.70;;;;;;;18.21;100.00;97318.59;5048571;28;20483;-76
2022/07/22 02:17:55;;;;;;;17.23;6.30;;;;;;;18.23;100.00;97327.44;5076328;28;20056;-76
2022/07/22 02:20:21;;;;;;;12.10;6.40;;;;;;;18.25;100.00;97322.72;5069892;28;20025;-75
2022/07/22 02:22:47;;;;;;;11.20;6.40;;;;;;;18.30;100.00;97327.69;5061497;28;20037;-75
2022/07/22 02:25:13;;;;;;;17.90;8.73;;;;;;;18.26;100.00;97329.84;5046130;28;20481;-74
2022/07/22 02:27:39;;;;;;;16.30;7.18;;;;;;;18.23;100.00;97324.72;5075608;28;20025;-75
2022/07/22 02:30:05;;;;;;;17.75;6.53;;;;;;;18.17;100.00;97322.63;5035291;28;20059;-76
2022/07/22 02:32:31;;;;;;;12.65;6.90;;;;;;;18.23;100.00;97335.56;5054068;28;20028;-76
2022/07/22 02:34:57;;;;;;;20.17;6.32;;;;;;;18.18;100.00;97337.00;5038110;28;20147;-76
2022/07/22 02:37:22;;;;;;;12.50;5.90;;;;;;;18.09;100.00;97340.59;5044390;28;20040;-76
2022/07/22 02:39:48;;;;;;;12.52;6.47;;;;;;;18.00;100.00;97333.31;5071015;28;20032;-75
2022/07/22 02:42:13;;;;;;;7.95;5.75;;;;;;;18.00;100.00;97341.44;5045830;28;20036;-76
2022/07/22 02:44:39;;;;;;;9.70;6.13;;;;;;;17.94;100.00;97348.28;5054333;28;20120;-75
2022/07/22 02:47:05;;;;;;;12.75;6.65;;;;;;;17.93;100.00;97351.16;5054007;28;20403;-76
2022/07/22 02:49:31;;;;;;;16.27;7.00;;;;;;;17.90;100.00;97346.03;5070687;28;20020;-75
2022/07/22 02:51:56;;;;;;;9.40;6.00;;;;;;;17.95;100.00;97349.16;5039758;28;20036;-76
2022/07/22 02:54:22;;;;;;;13.70;6.40;;;;;;;17.97;100.00;97347.16;5044957;28;20032;-75
2022/07/22 02:56:47;;;;;;;16.35;6.68;;;;;;;17.96;100.00;97345.47;5053958;28;20098;-75
2022/07/22 02:59:13;;;;;;;14.65;6.38;;;;;;;17.94;100.00;97340.19;5037080;28;20064;-75
2022/07/22 03:01:38;;;;;;;13.20;7.00;;;;;;;17.93;100.00;97337.63;5053874;28;20031;-76
2022/07/22 03:04:04;;;;;;;9.70;6.25;;;;;;;17.92;100.00;97346.75;5054186;28;20429;-76
2022/07/22 03:06:30;;;;;;;15.60;7.03;;;;;;;17.96;100.00;97351.75;5053168;28;20028;-76
2022/07/22 03:08:55;;;;;;;14.85;7.50;;;;;;;17.93;100.00;97354.72;5065252;28;20039;-76
2022/07/22 03:11:21;;;;;;;14.55;7.18;;;;;;;18.02;100.00;97350.28;5060597;28;20029;-76
2022/07/22 03:13:46;;;;;;;12.50;6.60;;;;;;;18.06;100.00;97351.69;5057722;28;20033;-77
2022/07/22 03:16:12;;;;;;;12.50;6.85;;;;;;;18.06;100.00;97355.25;5050495;28;20033;-77
2022/07/22 03:18:38;;;;;;;13.70;7.07;;;;;;;17.88;100.00;97348.88;5044535;28;20025;-76
2022/07/22 03:21:03;;;;;;;16.95;7.20;;;;;;;17.93;100.00;97349.31;5050054;28;20053;-75
2022/07/22 03:23:29;;;;;;;19.10;7.32;;;;;;;18.05;100.00;97356.28;5055027;28;20447;-75
2022/07/22 03:25:56;;;;;;;12.57;7.15;;;;;;;18.07;100.00;97365.09;5039790;28;20036;-75
2022/07/22 03:28:22;;;;;;;21.08;6.95;;;;;;;18.04;100.00;97359.97;5039819;28;20064;-76
2022/07/22 03:30:47;;;;;;;15.63;6.75;;;;;;;18.23;100.00;97367.19;5061621;28;20056;-75
2022/07/22 03:33:13;;;;;;;14.32;7.05;;;;;;;18.11;100.00;97342.16;5068484;28;20062;-76
2022/07/22 03:35:39;;;;;;;15.10;7.07;;;;;;;18.25;100.00;97373.31;5069725;28;20081;-76
2022/07/22 03:38:04;;;;;;;18.52;7.43;;;;;;;18.20;100.00;97378.31;5070073;28;20029;-76
2022/07/22 03:40:30;;;;;;;17.60;7.55;;;;;;;18.17;100.00;97365.94;5050010;28;20051;-75
2022/07/22 03:42:55;;;;;;;13.30;7.28;;;;;;;18.33;100.00;97384.28;5052629;28;20021;-77
2022/07/22 03:45:21;;;;;;;18.38;7.43;;;;;;;18.25;100.00;97378.72;5041343;28;20021;-77
2022/07/22 03:47:47;;;;;;;16.20;7.50;;;;;;;18.34;100.00;97381.41;5066589;28;20047;-77
2022/07/22 03:50:15;;;;;;;22.40;7.78;;;;;;;18.41;100.00;97384.38;5042569;28;20503;-76
2022/07/22 03:52:41;;;;;;;22.85;8.60;;;;;;;18.47;100.00;97378.38;5033556;28;20028;-76
2022/07/22 03:55:07;;;;;;;23.63;8.02;;;;;;;18.48;100.00;97371.09;5070112;28;20029;-83
2022/07/22 03:57:33;;;;;;;13.00;7.25;;;;;;;18.50;99.87;97367.28;5053461;28;20027;-78
2022/07/22 03:59:58;;;;;;;22.27;7.75;;;;;;;18.77;99.49;97397.09;5067845;28;20036;-77
2022/07/22 04:02:24;;;;;;;17.13;7.78;;;;;;;18.81;98.57;97390.41;5052834;28;20027;-77
2022/07/22 04:04:49;;;;;;;19.58;7.15;;;;;;;18.97;98.26;97397.03;5070461;28;20400;-76
2022/07/22 04:07:15;;;;;;;24.35;8.02;;;;;;;19.06;97.59;97396.13;5052681;28;20498;-76
2022/07/22 04:09:41;;;;;;;24.17;8.00;;;;;;;19.16;97.56;97403.19;5044264;28;20040;-77
2022/07/22 04:12:25;;;;;;;22.85;9.23;;;;;;;19.31;96.50;97417.94;5052622;28;20090;-76
2022/07/22 04:14:50;;;;;;;17.85;8.27;;;;;;;19.32;94.93;97407.94;5067619;28;20587;-76
2022/07/22 04:17:16;;;;;;;30.00;7.88;;;;;;;19.33;92.81;97412.38;5042500;28;20100;-76
2022/07/22 04:19:41;;;;;;;24.13;7.88;;;;;;;19.19;92.18;97411.03;5051839;28;20028;-76
2022/07/22 04:22:07;;;;;;;22.55;9.82;;;;;;;19.28;91.40;97417.41;5056659;28;20423;-74
2022/07/22 04:24:32;;;;;;;29.02;10.88;;;;;;;19.21;91.64;97416.28;5066477;28;20024;-75
2022/07/22 04:26:58;;;;;;;32.22;10.23;;;;;;;19.13;92.43;97417.06;5071680;28;20036;-75
2022/07/22 04:29:24;;;;;;;31.85;10.00;;;;;;;19.11;92.85;97394.66;5071898;28;20028;-75
2022/07/22 04:31:50;;;;;;;17.77;8.68;;;;;;;19.28;91.40;97418.25;5073214;28;20058;-75
2022/07/22 04:34:15;;;;;;;26.20;8.90;;;;;;;19.42;90.62;97433.19;5056303;28;20494;-76
2022/07/22 04:36:41;;;;;;;22.17;8.55;;;;;;;19.17;91.86;97401.31;5056419;28;20028;-77
2022/07/22 04:39:06;;;;;;;29.92;12.32;;;;;;;19.48;90.07;97419.00;5065618;28;20468;-76
2022/07/22 04:41:32;;;;;;;19.23;9.60;;;;;;;20.40;85.42;97416.78;5064888;28;20028;-76
2022/07/22 04:43:58;;;;;;;23.23;9.02;;;;;;;21.23;79.67;97407.06;5063314;28;20048;-76
2022/07/22 04:46:23;;;;;;;15.80;9.05;;;;;;;21.20;78.78;97432.75;5041153;28;20481;-76
2022/07/22 04:48:49;;;;;;;29.65;11.10;;;;;;;20.91;80.25;97437.69;5052996;28;20066;-76
2022/07/22 04:51:14;;;;;;;34.63;9.55;;;;;;;20.68;81.29;97431.09;5072866;28;20027;-76
2022/07/22 04:53:40;;;;;;;24.40;10.27;;;;;;;20.67;82.10;97441.13;5056147;28;20218;-76
2022/07/22 04:56:06;;;;;;;22.80;10.40;;;;;;;20.56;82.87;97433.22;5051389;28;20025;-75
2022/07/22 04:58:31;;;;;;;29.95;10.48;;;;;;;20.67;82.13;97445.72;5072167;28;20031;-77
2022/07/22 05:00:57;;;;;;;22.42;10.02;;;;;;;20.70;82.22;97451.69;5055821;28;20048;-75
2022/07/22 05:03:24;;;;;;;30.50;11.35;;;;;;;20.95;81.40;97439.06;5064132;28;20033;-75
2022/07/22 05:05:50;;;;;;;23.02;9.68;;;;;;;22.25;76.47;97441.19;5053150;28;20033;-75
2022/07/22 05:08:15;;;;;;;25.40;9.20;;;;;;;23.99;69.08;97437.44;5044580;28;20040;-75
2022/07/22 05:10:41;;;;;;;21.38;7.95;;;;;;;25.32;62.45;97440.28;5055486;28;20111;-76
2022/07/22 05:13:06;;;;;;;22.85;8.73;;;;;;;25.02;61.78;97427.66;5052095;28;20037;-75
2022/07/22 05:15:32;;;;;;;19.63;8.13;;;;;;;24.47;63.06;97438.94;5055453;28;20476;-76
2022/07/22 05:17:57;;;;;;;18.92;7.50;;;;;;;24.49;63.69;97444.22;5044565;28;20540;-75
2022/07/22 05:20:23;;;;;;;15.20;7.25;;;;;;;24.29;63.10;97435.69;5047108;28;20040;-76
2022/07/22 05:22:49;;;;;;;16.40;7.70;;;;;;;24.32;63.21;97450.88;5052684;28;20070;-75
2022/07/22 05:25:14;;;;;;;16.73;8.00;;;;;;;25.26;60.66;97435.59;5052280;28;20051;-76
2022/07/22 05:27:53;;;;;;;21.10;7.97;;;;;;;27.15;55.84;97435.09;5069123;28;20062;-76
2022/07/22 05:30:19;;;;;;;19.13;7.45;;;;;;;29.07;49.92;97420.84;5063330;28;20013;-75
2022/07/22 05:32:45;;;;;;;10.38;6.35;;;;;;;30.32;46.04;97427.59;5055445;28;20528;-75
2022/07/22 05:35:11;;;;;;;21.80;6.82;;;;;;;30.74;44.28;97417.75;5067493;28;20064;-74
2022/07/22 05:37:36;;;;;;;14.48;7.65;;;;;;;31.01;43.43;97422.00;5037847;28;20029;-75
2022/07/22 05:40:03;;;;;;;13.77;6.78;;;;;;;31.85;41.61;97418.53;5055217;28;20028;-76
2022/07/22 05:42:28;;;;;;;15.60;6.80;;;;;;;33.36;39.45;97409.81;5086173;28;20024;-76
2022/07/22 05:44:54;;;;;;;16.27;6.78;;;;;;;33.73;37.85;97416.81;5073015;28;20032;-75
2022/07/22 05:47:19;;;;;;;19.08;7.32;;;;;;;34.79;36.31;97419.78;5066613;28;20109;-75
2022/07/22 05:49:45;;;;;;;14.75;6.72;;;;;;;35.23;35.01;97418.03;5038093;28;20021;-76
2022/07/22 05:52:11;;;;;;;16.90;6.88;;;;;;;34.11;36.13;97413.47;5054936;28;20082;-77
2022/07/22 05:54:36;;;;;;;18.13;7.35;;;;;;;35.24;34.49;97396.63;5038178;28;20465;-76
2022/07/22 05:57:02;;;;;;;18.40;6.65;;;;;;;35.55;33.71;97409.88;5052187;28;20025;-76
2022/07/22 05:59:28;;;;;;;15.88;6.68;;;;;;;35.65;33.46;97400.88;5054413;28;20123;-75
2022/07/22 06:01:53;;;;;;;17.00;6.55;;;;;;;36.66;31.75;97405.72;5063134;28;20404;-76
2022/07/22 06:04:20;;;;;;;22.15;6.95;;;;;;;37.21;30.99;97404.53;5054772;28;20025;-76
2022/07/22 06:06:46;;;;;;;14.90;6.70;;;;;;;38.24;29.89;97416.91;5054561;28;20016;-76
2022/07/22 06:09:11;;;;;;;22.17;6.85;;;;;;;38.40;29.77;97407.44;5051167;28;20143;-78
2022/07/22 06:11:37;;;;;;;34.17;6.78;;;;;;;36.43;31.50;97422.72;5044351;28;20095;-78
2022/07/22 06:14:03;;;;;;;30.40;6.47;;;;;;;37.42;30.62;97404.41;5054311;28;20504;-78
2022/07/22 06:16:28;;;;;;;15.20;5.95;;;;;;;36.60;31.36;97422.69;5048877;28;20025;-76
2022/07/22 06:18:54;;;;;;;20.08;5.63;;;;;;;36.89;31.33;97421.25;5037861;28;20029;-75
2022/07/22 06:21:20;;;;;;;29.35;5.82;;;;;;;37.12;30.86;97420.09;5071237;28;20024;-76
2022/07/22 06:23:45;;;;;;;10.55;5.78;;;;;;;37.19;30.66;97429.09;5051406;28;20090;-77
2022/07/22 06:26:11;;;;;;;15.48;6.07;;;;;;;37.06;30.68;97418.38;5054474;28;20090;-76
2022/07/22 06:28:36;;;;;;;22.02;5.80;;;;;;;35.93;31.71;97442.47;5051815;28;20526;-76
2022/07/22 06:31:02;;;;;;;14.57;5.60;;;;;;;36.16;32.37;97435.81;5071206;28;20020;-76
2022/07/22 06:33:28;;;;;;;9.80;5.50;;;;;;;36.53;31.26;97427.59;5054384;28;20116;-76
2022/07/22 06:35:53;;;;;;;13.65;5.55;;;;;;;37.08;30.59;97408.63;5042900;28;20028;-76
2022/07/22 06:38:19;;;;;;;12.63;5.35;;;;;;;37.64;29.41;97423.84;5054235;28;20024;-76
2022/07/22 06:40:44;;;;;;;11.38;5.63;;;;;;;37.76;29.35;97430.06;5053743;28;20024;-76
2022/07/22 06:43:10;;;;;;;11.80;5.35;;;;;;;38.79;28.28;97431.09;5052337;28;20489;-76
2022/07/22 06:45:35;;;;;;;21.40;4.60;;;;;;;39.67;27.06;97442.00;5051041;28;20043;-76
2022/07/22 06:48:01;;;;;;;11.90;5.72;;;;;;;39.26;27.42;97418.78;5053798;28;20025;-76
2022/07/22 06:50:27;;;;;;;9.45;5.40;;;;;;;38.22;29.04;97435.88;5053775;28;20056;-76
2022/07/22 06:52:53;;;;;;;7.18;4.85;;;;;;;37.02;30.28;97445.13;5067551;28;20082;-76
2022/07/22 06:55:19;;;;;;;13.60;6.10;;;;;;;36.90;30.86;97448.91;5053701;28;20032;-76
2022/07/22 06:57:44;;;;;;;12.63;5.57;;;;;;;37.45;30.46;97425.41;5055321;28;20115;-76
2022/07/22 07:00:10;;;;;;;10.90;5.38;;;;;;;38.95;28.66;97429.94;5033780;28;20041;-76
2022/07/22 07:02:36;;;;;;;9.98;5.70;;;;;;;38.64;29.34;97428.19;5035013;28;20028;-76
2022/07/22 07:05:02;;;;;;;13.60;6.28;;;;;;;39.46;28.34;97447.63;5053247;28;20036;-75
2022/07/22 07:07:27;;;;;;;10.40;5.53;;;;;;;40.86;27.13;97454.97;5068974;28;20073;-76
2022/07/22 07:09:53;;;;;;;21.45;6.22;;;;;;;41.51;26.45;97445.25;5053288;28;20032;-77
2022/07/22 07:12:19;;;;;;;20.50;6.32;;;;;;;42.20;25.49;97424.28;5064620;28;20399;-76
2022/07/22 07:14:44;;;;;;;10.85;5.57;;;;;;;42.08;25.64;97436.78;5035332;28;20033;-76
2022/07/22 07:17:10;;;;;;;15.00;5.72;;;;;;;42.54;25.33;97442.69;5053557;28;20534;-76
2022/07/22 07:19:35;;;;;;;14.20;5.47;;;;;;;42.66;25.06;97434.66;5050927;28;20059;-77
2022/07/22 07:22:01;;;;;;;11.65;5.82;;;;;;;42.99;23.97;97438.41;5069687;28;20068;-77
2022/07/22 07:24:26;;;;;;;7.55;4.85;;;;;;;42.89;23.38;97415.16;5046995;28;20032;-77
2022/07/22 07:26:52;;;;;;;8.02;4.70;;;;;;;43.30;23.54;97435.91;5035820;28;20193;-76
2022/07/22 07:29:18;;;;;;;8.82;4.78;;;;;;;41.88;24.12;97437.00;5053220;28;20028;-77
2022/07/22 07:31:43;;;;;;;12.00;4.75;;;;;;;41.04;24.84;97434.69;5050964;28;20569;-76
2022/07/22 07:34:09;;;;;;;11.00;4.80;;;;;;;41.35;24.64;97438.13;5066502;28;20377;-75
2022/07/22 07:36:34;;;;;;;8.75;4.82;;;;;;;41.73;24.80;97437.16;5058172;28;20055;-76
2022/07/22 07:39:00;;;;;;;15.48;5.20;;;;;;;42.44;23.84;97437.19;5049906;28;20036;-75
2022/07/22 07:41:25;;;;;;;12.57;4.82;;;;;;;42.88;23.34;97430.41;5044380;28;20055;-77
2022/07/22 07:43:51;;;;;;;10.13;5.20;;;;;;;42.82;23.26;97434.44;5048649;28;20033;-77
2022/07/22 07:46:16;;;;;;;11.88;4.80;;;;;;;41.96;23.63;97425.09;5050897;28;20025;-77
2022/07/22 07:48:42;;;;;;;10.60;4.65;;;;;;;42.60;22.69;97429.41;5069603;28;20028;-78
2022/07/22 07:51:08;;;;;;;9.23;4.55;;;;;;;42.88;22.60;97436.88;5069523;28;20025;-78
2022/07/22 07:53:34;;;;;;;7.72;5.22;;;;;;;42.85;22.68;97443.13;5048658;28;20484;-77
2022/07/22 07:55:59;;;;;;;6.07;4.38;;;;;;;42.78;22.64;97442.66;5052329;28;20036;-78
2022/07/22 07:58:25;;;;;;;12.32;4.72;;;;;;;41.86;23.87;97444.06;5036018;28;20032;-76
2022/07/22 08:00:50;;;;;;;11.85;4.97;;;;;;;41.45;24.48;97446.44;5040198;28;20087;-76
2022/07/22 08:03:16;;;;;;;13.35;5.00;;;;;;;42.39;23.07;97434.47;5040136;28;20063;-76
2022/07/22 08:05:42;;;;;;;10.02;4.60;;;;;;;42.96;22.59;97453.06;5069468;28;20107;-76
2022/07/22 08:08:08;;;;;;;8.70;4.20;;;;;;;42.64;22.41;97444.56;5086301;28;20081;-76
2022/07/22 08:10:34;;;;;;;12.88;4.93;;;;;;;43.60;22.28;97445.84;5035937;28;20400;-76
2022/07/22 08:13:00;;;;;;;13.70;5.63;;;;;;;43.70;22.00;97451.31;5044236;28;20102;-75
2022/07/22 08:15:27;;;;;;;15.10;5.22;;;;;;;43.26;21.80;97439.66;5035946;28;20052;-76
2022/07/22 08:17:53;;;;;;;15.65;4.80;;;;;;;42.87;22.48;97432.38;5040240;28;20106;-77
2022/07/22 08:20:18;;;;;;;9.00;5.20;;;;;;;43.70;21.77;97448.47;5044019;28;20028;-76
2022/07/22 08:22:44;;;;;;;8.23;4.63;;;;;;;42.07;23.20;97423.84;5052618;28;20070;-76
2022/07/22 08:25:10;;;;;;;8.32;4.53;;;;;;;41.87;23.59;97449.38;5065209;28;20020;-76
2022/07/22 08:27:36;;;;;;;9.23;5.28;;;;;;;42.97;22.59;97456.72;5045373;28;20373;-77
2022/07/22 08:30:05;;;;;;;15.43;5.32;;;;;;;41.61;23.87;97450.78;5067824;28;20060;-76
2022/07/22 08:32:31;;;;;;;8.30;4.28;;;;;;;39.46;26.22;97442.03;5051030;28;20473;-77
2022/07/22 08:34:57;;;;;;;8.65;4.35;;;;;;;41.56;24.11;97454.47;5050564;28;20099;-76
2022/07/22 08:37:23;;;;;;;9.18;4.45;;;;;;;42.66;23.49;97467.59;5052845;28;20028;-77
2022/07/22 08:39:49;;;;;;;10.43;4.50;;;;;;;44.10;21.80;97455.34;5052434;28;20028;-77
2022/07/22 08:42:14;;;;;;;11.75;4.45;;;;;;;44.12;21.80;97456.69;5049212;28;20033;-77
2022/07/22 08:44:40;;;;;;;8.15;4.28;;;;;;;44.13;22.24;97468.81;5067108;28;20052;-77
2022/07/22 08:47:06;;;;;;;7.78;4.63;;;;;;;44.98;21.39;97468.19;5035830;28;20538;-77
2022/07/22 08:49:32;;;;;;;13.52;4.70;;;;;;;45.06;21.10;97450.47;5049611;28;20028;-77
2022/07/22 08:51:57;;;;;;;11.75;4.60;;;;;;;45.87;20.72;97463.41;5069052;28;20056;-78
2022/07/22 08:54:23;;;;;;;7.18;4.32;;;;;;;43.50;22.38;97465.78;5049209;28;20508;-77
2022/07/22 08:56:51;;;;;;;13.38;4.70;;;;;;;43.82;22.28;97456.47;5066849;28;20043;-78
2022/07/22 08:59:17;;;;;;;9.98;4.63;;;;;;;43.01;22.64;97446.56;5068922;28;20017;-78
2022/07/22 09:02:19;;;;;;;6.90;4.35;;;;;;;44.45;21.77;97462.28;5041111;28;20024;-76
2022/07/22 09:04:57;;;;;;;11.02;4.45;;;;;;;44.45;21.25;97449.00;5007868;28;20473;-77
2022/07/22 09:07:25;;;;;;;15.75;5.35;;;;;;;44.15;21.91;97439.16;5045744;28;20041;-78
2022/07/22 09:09:51;;;;;;;13.65;5.05;;;;;;;44.46;21.54;97445.00;5067548;28;20551;-77
2022/07/22 09:12:16;;;;;;;9.95;4.38;;;;;;;44.68;21.20;97445.09;5055832;28;20036;-77
2022/07/22 09:14:47;;;;;;;21.33;4.80;;;;;;;44.72;20.73;97456.63;5055413;28;20013;-76
2022/07/22 09:17:38;;;;;;;7.33;4.30;;;;;;;42.74;22.15;97443.53;5069639;28;20024;-76
2022/07/22 09:20:15;;;;;;;11.05;4.07;;;;;;;43.96;21.65;97461.00;5045506;28;20107;-76
2022/07/22 09:22:43;;;;;;;16.45;4.95;;;;;;;44.74;20.48;97452.31;5055579;28;20525;-76
2022/07/22 09:25:19;;;;;;;7.97;4.72;;;;;;;44.52;20.58;97463.50;5042018;28;20123;-77
2022/07/22 09:27:46;;;;;;;8.70;4.50;;;;;;;43.85;21.21;97441.75;5053025;28;20500;-76
2022/07/22 09:30:17;;;;;;;12.88;4.93;;;;;;;43.65;21.41;97437.31;5055342;28;20020;-77
2022/07/22 09:32:43;;;;;;;10.90;4.55;;;;;;;43.36;21.61;97457.22;5049935;28;20036;-77
2022/07/22 09:35:10;;;;;;;20.45;4.70;;;;;;;42.00;22.90;97454.31;5063972;28;20107;-76
2022/07/22 09:37:55;;;;;;;8.07;4.00;;;;;;;42.65;22.40;97463.09;5055582;28;20029;-77
2022/07/22 09:40:24;;;;;;;12.18;4.82;;;;;;;43.61;21.63;97462.47;5049755;28;20040;-77
2022/07/22 09:42:54;;;;;;;7.38;4.22;;;;;;;43.19;21.58;97454.97;5049754;28;20499;-76
2022/07/22 09:45:21;;;;;;;6.32;4.75;;;;;;;42.97;22.14;97466.06;5055210;28;20020;-77
2022/07/22 09:47:48;;;;;;;9.05;4.80;;;;;;;43.34;22.34;97462.34;5051791;28;20091;-77
2022/07/22 09:50:31;;;;;;;11.50;4.28;;;;;;;41.45;23.04;97443.63;5049406;28;20048;-77
2022/07/22 09:52:59;;;;;;;9.48;4.05;;;;;;;41.54;23.83;97461.50;5038426;28;20439;-76
2022/07/22 09:55:26;;;;;;;6.63;4.18;;;;;;;40.92;24.56;97465.03;5049409;28;20032;-77
2022/07/22 09:57:53;;;;;;;19.50;5.65;;;;;;;40.77;24.84;97466.00;5063281;28;20031;-75
2022/07/22 10:00:21;;;;;;;9.32;4.30;;;;;;;42.09;22.89;97440.41;5054791;28;20125;-77
2022/07/22 10:02:53;;;;;;;9.27;4.03;;;;;;;43.21;22.00;97454.69;5052011;28;20411;-77
2022/07/22 10:05:21;;;;;;;11.65;3.88;;;;;;;44.11;21.25;97435.28;5054795;28;20028;-77
2022/07/22 10:07:47;;;;;;;12.23;4.03;;;;;;;44.99;20.87;97459.38;5071343;28;20135;-77
2022/07/22 10:10:15;;;;;;;14.65;4.45;;;;;;;45.91;19.73;97447.44;5054626;28;20443;-76
2022/07/22 10:12:42;;;;;;;7.47;4.30;;;;;;;45.87;19.92;97426.66;5049253;28;20033;-77
2022/07/22 10:15:09;;;;;;;8.60;3.95;;;;;;;46.39;18.93;97446.69;5054353;28;20028;-77
2022/07/22 10:17:45;;;;;;;9.68;4.20;;;;;;;46.28;19.17;97438.47;5070429;28;20570;-76
2022/07/22 10:20:11;;;;;;;6.78;4.00;;;;;;;46.08;19.35;97447.56;5062796;28;20028;-77
2022/07/22 10:22:42;;;;;;;11.07;4.40;;;;;;;45.91;19.52;97435.28;5054603;28;20090;-77
2022/07/22 10:25:10;;;;;;;6.22;4.10;;;;;;;45.37;19.83;97428.81;5065414;28;20120;-78
2022/07/22 10:27:48;;;;;;;7.10;4.15;;;;;;;45.97;19.23;97443.31;5063047;28;20024;-77
2022/07/22 10:30:15;;;;;;;8.40;4.20;;;;;;;46.11;18.90;97415.78;5070457;28;20024;-76
2022/07/22 10:32:42;;;;;;;6.63;4.43;;;;;;;45.89;19.01;97427.13;5054281;28;20211;-77
2022/07/22 10:35:19;;;;;;;14.85;4.68;;;;;;;46.11;19.28;97424.28;5052878;28;20039;-77
2022/07/22 10:37:49;;;;;;;11.00;3.80;;;;;;;45.52;19.06;97430.38;5044298;28;20090;-77
2022/07/22 10:40:24;;;;;;;28.10;14.98;;;;;;;46.02;19.06;97425.38;5036815;28;20036;-77
2022/07/22 10:43:06;;;;;;;14.90;10.02;;;;;;;45.34;19.17;97431.44;5077139;28;20535;-79
2022/07/22 10:45:45;;;;;;;16.98;5.07;;;;;;;45.05;19.21;97421.38;5070970;28;20028;-77
2022/07/22 10:48:15;;;;;;;11.25;3.95;;;;;;;46.19;19.05;97426.28;5059451;28;20466;-76
2022/07/22 10:50:46;;;;;;;6.90;4.25;;;;;;;46.87;18.44;97421.16;5054011;28;20016;-77
2022/07/22 10:53:14;;;;;;;8.75;4.38;;;;;;;46.82;18.35;97427.84;5052704;28;20091;-77
2022/07/22 10:56:00;;;;;;;10.82;4.72;;;;;;;47.23;17.76;97414.00;5070371;28;20112;-77
2022/07/22 10:58:32;;;;;;;5.10;4.13;;;;;;;46.76;18.33;97420.63;5070510;28;20446;-77
2022/07/22 11:01:03;;;;;;;9.57;4.25;;;;;;;47.12;18.22;97429.66;5059237;28;20065;-78
2022/07/22 11:03:29;;;;;;;13.68;4.60;;;;;;;46.31;18.81;97412.34;5070499;28;20033;-76
2022/07/22 11:05:56;;;;;;;6.68;4.25;;;;;;;45.05;19.83;97406.41;5046746;28;20527;-77
2022/07/22 11:08:22;;;;;;;11.18;5.30;;;;;;;45.87;19.17;97412.50;5053248;28;20498;-76
2022/07/22 11:10:49;;;;;;;21.17;5.93;;;;;;;46.81;18.18;97409.16;5070476;28;20028;-77
2022/07/22 11:13:36;;;;;;;13.52;6.22;;;;;;;47.19;17.62;97421.53;5068691;28;20467;-78
2022/07/22 11:16:24;;;;;;;7.40;4.38;;;;;;;46.99;18.26;97416.50;5036869;28;20024;-77
2022/07/22 11:19:01;;;;;;;6.93;4.03;;;;;;;47.24;17.77;97418.50;5050093;28;20039;-79
2022/07/22 11:21:29;;;;;;;10.10;4.03;;;;;;;45.20;19.09;97412.50;5060584;28;20027;-76
2022/07/22 11:23:57;;;;;;;11.63;4.43;;;;;;;46.04;18.53;97412.56;5046518;28;20043;-76
2022/07/22 11:26:40;;;;;;;12.60;4.53;;;;;;;45.55;19.02;97399.47;5053324;28;20053;-77
2022/07/22 11:29:07;;;;;;;13.10;4.13;;;;;;;46.41;18.81;97408.38;5037845;28;20485;-77